Time;durP1;ratioP1;P1;durP2;ratioP2;P2;SDS_P1;SDS_P2;PMS_P1;PMS_P2;Temp;Humidity;BMP_temperature;BMP_pressure;BME280_temperature;BME280_humidity;BME280_pressure;Samples;Min_cycle;Max_cycle;Signal;HPM_P1;HPM_P2
2022/06/13 00:00:55;;;;;;;2.27;2.07;;;;;;;;;;4988405;28;20270;-78
2022/06/13 00:03:21;;;;;;;3.10;2.43;;;;;;;;;;4983264;28;20185;-78
2022/06/13 00:05:46;;;;;;;2.33;2.13;;;;;;;;;;4978051;28;20180;-78
2022/06/13 00:08:11;;;;;;;2.63;2.30;;;;;;;;;;4987923;28;20179;-79
2022/06/13 00:10:37;;;;;;;2.33;2.13;;;;;;;;;;4993258;28;20175;-78
2022/06/13 00:13:03;;;;;;;3.07;2.40;;;;;;;;;;4980770;28;20205;-78
2022/06/13 00:15:28;;;;;;;2.57;2.30;;;;;;;;;;4971904;28;20192;-78
2022/06/13 00:17:53;;;;;;;2.40;2.20;;;;;;;;;;4987564;28;20184;-78
2022/06/13 00:20:19;;;;;;;2.47;2.10;;;;;;;;;;4972413;28;20184;-78
2022/06/13 00:22:44;;;;;;;2.97;2.30;;;;;;;;;;4978134;28;20183;-78
2022/06/13 00:25:09;;;;;;;3.93;2.93;;;;;;;;;;4966100;28;20275;-78
2022/06/13 00:27:35;;;;;;;2.50;2.30;;;;;;;;;;4968741;28;20194;-78
2022/06/13 00:30:01;;;;;;;2.73;2.53;;;;;;;;;;4989179;28;20215;-78
2022/06/13 00:32:26;;;;;;;3.27;2.33;;;;;;;;;;4971763;28;20218;-78
2022/06/13 00:34:51;;;;;;;3.77;2.60;;;;;;;;;;4971390;28;20280;-79
2022/06/13 00:37:16;;;;;;;3.57;2.27;;;;;;;;;;4969659;28;20188;-78
2022/06/13 00:39:42;;;;;;;2.53;2.33;;;;;;;;;;4977293;28;20183;-78
2022/06/13 00:42:07;;;;;;;3.40;2.37;;;;;;;;;;4972516;28;20283;-77
2022/06/13 00:44:34;;;;;;;2.60;2.40;;;;;;;;;;5007047;28;20199;-78
2022/06/13 00:46:59;;;;;;;2.87;2.40;;;;;;;;;;4980564;28;20188;-78
2022/06/13 00:49:29;;;;;;;2.97;2.57;;;;;;;;;;4970704;28;20214;-79
2022/06/13 00:52:01;;;;;;;2.87;2.33;;;;;;;;;;4991398;28;20202;-77
2022/06/13 00:54:27;;;;;;;5.30;3.23;;;;;;;;;;4972254;28;20188;-78
2022/06/13 00:56:52;;;;;;;2.50;2.30;;;;;;;;;;4992710;28;20180;-79
2022/06/13 00:59:19;;;;;;;5.20;2.60;;;;;;;;;;4975005;28;20181;-79
2022/06/13 01:01:45;;;;;;;2.70;2.50;;;;;;;;;;4969177;28;20186;-78
2022/06/13 01:04:10;;;;;;;3.03;2.73;;;;;;;;;;4976169;28;20188;-79
2022/06/13 01:06:37;;;;;;;3.10;2.80;;;;;;;;;;4973342;28;20257;-77
2022/06/13 01:09:04;;;;;;;3.13;2.93;;;;;;;;;;4988823;28;20189;-78
2022/06/13 01:11:29;;;;;;;2.83;2.53;;;;;;;;;;4971711;28;20208;-78
2022/06/13 01:14:03;;;;;;;2.80;2.60;;;;;;;;;;4975013;28;20406;-78
2022/06/13 01:16:47;;;;;;;2.60;2.40;;;;;;;;;;4972277;28;20201;-78
2022/06/13 01:19:28;;;;;;;3.40;2.40;;;;;;;;;;5005294;28;20182;-77
2022/06/13 01:22:08;;;;;;;2.77;2.57;;;;;;;;;;4994801;28;20189;-78
2022/06/13 01:24:52;;;;;;;2.90;2.50;;;;;;;;;;4995219;28;20186;-78
2022/06/13 01:27:36;;;;;;;2.43;2.23;;;;;;;;;;4986333;28;20180;-77
2022/06/13 01:30:11;;;;;;;3.00;2.40;;;;;;;;;;5004573;28;20178;-77
2022/06/13 01:32:55;;;;;;;4.80;2.50;;;;;;;;;;4992831;28;20266;-77
2022/06/13 01:35:25;;;;;;;4.37;2.70;;;;;;;;;;4975471;28;20234;-77
2022/06/13 01:38:00;;;;;;;4.20;2.30;;;;;;;;;;4977006;28;20176;-77
2022/06/13 01:40:44;;;;;;;5.30;2.40;;;;;;;;;;4994945;28;20229;-77
2022/06/13 01:43:13;;;;;;;3.20;2.63;;;;;;;;;;5012216;28;20186;-77
2022/06/13 01:45:59;;;;;;;3.20;2.57;;;;;;;;;;4988332;28;20213;-77
2022/06/13 01:48:31;;;;;;;2.60;2.40;;;;;;;;;;4974836;28;20328;-77
2022/06/13 01:51:01;;;;;;;3.40;2.90;;;;;;;;;;4995140;28;20205;-77
2022/06/13 01:53:49;;;;;;;2.40;2.20;;;;;;;;;;4994783;28;20286;-77
2022/06/13 01:56:16;;;;;;;2.60;2.40;;;;;;;;;;4996270;28;20181;-77
2022/06/13 01:58:54;;;;;;;2.77;2.50;;;;;;;;;;4988718;28;20178;-77
2022/06/13 02:01:23;;;;;;;2.67;2.47;;;;;;;;;;4981594;28;20302;-76
2022/06/13 02:03:50;;;;;;;2.97;2.40;;;;;;;;;;5009755;28;20188;-76
2022/06/13 02:06:20;;;;;;;2.70;2.17;;;;;;;;;;4978765;28;20187;-76
2022/06/13 02:09:00;;;;;;;5.47;3.40;;;;;;;;;;4986983;28;20182;-77
2022/06/13 02:11:29;;;;;;;3.03;2.47;;;;;;;;;;4997064;28;20178;-77
2022/06/13 02:14:18;;;;;;;3.63;2.40;;;;;;;;;;4980323;28;20197;-76
2022/06/13 02:16:49;;;;;;;3.50;2.37;;;;;;;;;;4929875;28;20190;-77
2022/06/13 02:19:17;;;;;;;3.10;2.47;;;;;;;;;;4991596;28;20227;-77
2022/06/13 02:21:44;;;;;;;2.90;2.57;;;;;;;;;;4994309;28;20184;-77
2022/06/13 02:24:12;;;;;;;3.23;2.53;;;;;;;;;;4988867;28;20182;-76
2022/06/13 02:26:38;;;;;;;2.87;2.60;;;;;;;;;;4997126;28;20188;-77
2022/06/13 02:29:10;;;;;;;3.20;2.63;;;;;;;;;;4968872;28;20189;-76
2022/06/13 02:31:58;;;;;;;2.67;2.20;;;;;;;;;;4976421;28;20240;-77
2022/06/13 02:34:34;;;;;;;3.00;2.70;;;;;;;;;;5005137;28;20184;-77
2022/06/13 02:37:04;;;;;;;5.17;2.80;;;;;;;;;;4974949;28;20219;-77
2022/06/13 02:39:35;;;;;;;3.13;2.43;;;;;;;;;;4993028;28;20257;-77
2022/06/13 02:42:11;;;;;;;3.00;2.50;;;;;;;;;;4970006;28;20190;-77
2022/06/13 02:44:46;;;;;;;4.60;2.80;;;;;;;;;;4995734;28;20182;-77
2022/06/13 02:47:16;;;;;;;4.37;2.67;;;;;;;;;;4976895;28;20183;-77
2022/06/13 02:50:02;;;;;;;3.37;2.73;;;;;;;;;;4978687;28;20200;-76
2022/06/13 02:52:30;;;;;;;4.30;2.87;;;;;;;;;;5005101;28;20214;-77
2022/06/13 02:54:57;;;;;;;5.37;3.00;;;;;;;;;;5006672;28;20176;-76
2022/06/13 02:57:27;;;;;;;5.33;2.47;;;;;;;;;;4972678;28;20181;-77
2022/06/13 02:59:55;;;;;;;3.17;2.70;;;;;;;;;;4985457;28;20180;-77
2022/06/13 03:02:24;;;;;;;3.00;2.53;;;;;;;;;;4996042;28;20191;-77
2022/06/13 03:04:55;;;;;;;3.87;2.70;;;;;;;;;;5000974;28;20179;-76
2022/06/13 03:07:30;;;;;;;5.13;3.03;;;;;;;;;;4974369;28;20183;-76
2022/06/13 03:09:58;;;;;;;6.43;3.10;;;;;;;;;;5005979;28;20179;-77
2022/06/13 03:12:42;;;;;;;3.10;2.80;;;;;;;;;;4976202;28;20308;-76
2022/06/13 03:15:18;;;;;;;3.07;2.80;;;;;;;;;;4981717;28;20183;-76
2022/06/13 03:17:49;;;;;;;4.27;2.73;;;;;;;;;;4969125;28;20179;-77
2022/06/13 03:20:19;;;;;;;4.03;2.77;;;;;;;;;;4975573;28;20259;-77
2022/06/13 03:22:44;;;;;;;4.03;3.03;;;;;;;;;;4980526;28;20219;-76
2022/06/13 03:25:13;;;;;;;3.23;2.93;;;;;;;;;;5005931;28;20227;-77
2022/06/13 03:27:41;;;;;;;4.33;3.50;;;;;;;;;;4986981;28;20191;-77
2022/06/13 03:30:08;;;;;;;5.70;3.17;;;;;;;;;;4992959;28;20192;-76
2022/06/13 03:32:37;;;;;;;3.17;2.87;;;;;;;;;;4969213;28;20204;-77
2022/06/13 03:35:04;;;;;;;3.17;2.87;;;;;;;;;;4966380;28;20265;-77
2022/06/13 03:37:31;;;;;;;4.00;2.90;;;;;;;;;;4972107;28;20183;-77
2022/06/13 03:40:03;;;;;;;3.70;3.23;;;;;;;;;;4978933;28;20182;-77
2022/06/13 03:42:51;;;;;;;3.30;3.00;;;;;;;;;;4983914;28;20190;-76
2022/06/13 03:45:35;;;;;;;3.57;3.20;;;;;;;;;;4982614;28;20235;-77
2022/06/13 03:48:16;;;;;;;4.37;2.80;;;;;;;;;;4977967;28;20231;-77
2022/06/13 03:50:44;;;;;;;4.97;3.33;;;;;;;;;;4990934;28;20198;-77
2022/06/13 03:53:13;;;;;;;4.30;3.20;;;;;;;;;;4982909;28;20214;-77
2022/06/13 03:55:46;;;;;;;6.40;3.73;;;;;;;;;;4972983;28;20182;-77
2022/06/13 03:58:14;;;;;;;3.90;3.10;;;;;;;;;;4987193;28;20188;-76
2022/06/13 04:00:51;;;;;;;4.57;3.20;;;;;;;;;;4987445;28;20186;-77
2022/06/13 04:03:17;;;;;;;5.13;3.60;;;;;;;;;;4997942;28;20188;-77
2022/06/13 04:05:53;;;;;;;5.00;3.10;;;;;;;;;;4979503;28;20190;-77
2022/06/13 04:08:19;;;;;;;4.57;4.03;;;;;;;;;;4962378;28;20192;-77
2022/06/13 04:10:53;;;;;;;4.13;3.40;;;;;;;;;;4964503;28;20193;-77
2022/06/13 04:13:18;;;;;;;4.43;2.93;;;;;;;;;;4999868;28;20207;-76
2022/06/13 04:16:19;;;;;;;6.13;3.37;;;;;;;;;;4970391;28;20205;-76
2022/06/13 04:18:59;;;;;;;4.47;3.20;;;;;;;;;;4906744;29;20182;-76
2022/06/13 04:21:35;;;;;;;4.70;3.47;;;;;;;;;;4912245;29;20194;-76
2022/06/13 04:24:03;;;;;;;4.67;3.13;;;;;;;;;;4891388;29;20287;-77
2022/06/13 04:26:47;;;;;;;5.80;3.47;;;;;;;;;;4911941;29;20229;-76
2022/06/13 04:29:20;;;;;;;6.07;3.60;;;;;;;;;;4891428;29;20179;-76
2022/06/13 04:31:46;;;;;;;5.30;2.90;;;;;;;;;;4911489;29;20190;-76
2022/06/13 04:34:14;;;;;;;4.77;2.97;;;;;;;;;;4908563;29;20194;-76
2022/06/13 04:36:40;;;;;;;5.30;3.30;;;;;;;;;;4912469;29;20297;-76
2022/06/13 04:39:07;;;;;;;7.33;3.20;;;;;;;;;;4890306;29;20222;-76
2022/06/13 04:41:34;;;;;;;3.90;2.90;;;;;;;;;;4908446;29;20189;-76
2022/06/13 04:44:01;;;;;;;7.20;4.70;;;;;;;;;;4890553;29;20185;-76
2022/06/13 04:46:27;;;;;;;5.00;3.33;;;;;;;;;;4902611;29;20194;-76
2022/06/13 04:48:54;;;;;;;7.20;3.10;;;;;;;;;;4895642;29;20266;-76
2022/06/13 04:51:24;;;;;;;4.67;3.20;;;;;;;;;;4895623;29;20190;-76
2022/06/13 04:54:05;;;;;;;5.83;3.40;;;;;;;;;;4985384;28;20284;-76
2022/06/13 04:56:31;;;;;;;5.27;3.00;;;;;;;;;;4992169;28;20307;-76
2022/06/13 04:58:57;;;;;;;4.80;3.10;;;;;;;;;;4989098;28;20258;-76
2022/06/13 05:01:43;;;;;;;4.20;3.20;;;;;;;;;;4971487;28;20270;-76
2022/06/13 05:04:11;;;;;;;4.60;3.00;;;;;;;;;;4986141;28;20198;-76
2022/06/13 05:06:42;;;;;;;5.03;3.27;;;;;;;;;;4990569;28;20406;-76
2022/06/13 05:09:08;;;;;;;2.53;2.20;;;;;;;;;;4989615;28;20210;-76
2022/06/13 05:11:36;;;;;;;6.30;2.90;;;;;;;;;;4984834;28;20180;-76
2022/06/13 05:14:04;;;;;;;5.30;3.00;;;;;;;;;;4985883;28;20188;-76
2022/06/13 05:16:39;;;;;;;3.37;3.10;;;;;;;;;;4968880;28;20179;-76
2022/06/13 05:19:13;;;;;;;6.47;3.53;;;;;;;;;;4987381;28;20209;-76
2022/06/13 05:21:57;;;;;;;5.63;2.87;;;;;;;;;;5001827;28;20180;-76
2022/06/13 05:24:52;;;;;;;3.97;2.73;;;;;;;;;;4985674;28;20180;-76
2022/06/13 05:27:17;;;;;;;6.93;2.83;;;;;;;;;;4933235;28;20205;-76
2022/06/13 05:29:42;;;;;;;7.47;3.03;;;;;;;;;;4968977;28;20180;-76
2022/06/13 05:32:08;;;;;;;5.03;3.17;;;;;;;;;;4983668;28;20245;-76
2022/06/13 05:34:35;;;;;;;3.33;2.77;;;;;;;;;;4993492;28;20236;-76
2022/06/13 05:37:00;;;;;;;4.60;3.07;;;;;;;;;;5005495;28;20545;-76
2022/06/13 05:39:26;;;;;;;5.17;3.90;;;;;;;;;;4988832;28;20190;-76
2022/06/13 05:41:53;;;;;;;5.03;3.53;;;;;;;;;;4990519;28;20260;-76
2022/06/13 05:44:18;;;;;;;6.17;3.73;;;;;;;;;;4996037;28;20187;-76
2022/06/13 05:46:44;;;;;;;4.87;3.53;;;;;;;;;;4961896;28;20181;-77
2022/06/13 05:49:10;;;;;;;6.07;3.80;;;;;;;;;;4976380;28;20192;-77
2022/06/13 05:51:36;;;;;;;5.43;3.33;;;;;;;;;;4961547;28;20185;-76
2022/06/13 05:54:01;;;;;;;7.53;4.10;;;;;;;;;;4986805;28;20202;-76
2022/06/13 05:56:26;;;;;;;8.07;5.00;;;;;;;;;;4976318;28;20173;-76
2022/06/13 05:58:53;;;;;;;7.03;3.60;;;;;;;;;;4986877;28;20231;-76
2022/06/13 06:01:18;;;;;;;9.03;3.63;;;;;;;;;;4975507;28;20272;-76
2022/06/13 06:03:45;;;;;;;10.40;3.67;;;;;;;;;;4993033;28;20251;-76
2022/06/13 06:06:12;;;;;;;3.73;3.43;;;;;;;;;;4968119;28;20184;-77
2022/06/13 06:08:39;;;;;;;4.00;3.60;;;;;;;;;;5002466;28;20188;-77
2022/06/13 06:11:04;;;;;;;5.13;3.90;;;;;;;;;;5000192;28;20193;-76
2022/06/13 06:13:30;;;;;;;6.03;4.10;;;;;;;;;;4977180;28;20187;-76
2022/06/13 06:15:56;;;;;;;7.40;4.33;;;;;;;;;;4984077;28;20248;-76
2022/06/13 06:18:22;;;;;;;4.27;3.43;;;;;;;;;;4988876;28;20215;-76
2022/06/13 06:20:47;;;;;;;6.63;4.13;;;;;;;;;;4981518;28;20216;-76
2022/06/13 06:23:12;;;;;;;9.93;4.17;;;;;;;;;;4972816;28;20238;-76
2022/06/13 06:25:38;;;;;;;7.37;3.53;;;;;;;;;;4974700;28;20176;-76
2022/06/13 06:28:04;;;;;;;6.20;3.90;;;;;;;;;;4966638;28;20181;-76
2022/06/13 06:30:29;;;;;;;8.30;3.83;;;;;;;;;;4974812;28;20215;-76
2022/06/13 06:32:55;;;;;;;5.77;3.17;;;;;;;;;;4973639;28;20299;-76
2022/06/13 06:35:21;;;;;;;4.67;3.80;;;;;;;;;;4983956;28;20263;-76
2022/06/13 06:37:47;;;;;;;8.80;3.60;;;;;;;;;;4991060;28;20906;-76
2022/06/13 06:40:14;;;;;;;4.97;3.73;;;;;;;;;;4972566;28;20231;-76
2022/06/13 06:42:39;;;;;;;6.53;4.50;;;;;;;;;;4971858;28;20182;-76
2022/06/13 06:45:05;;;;;;;6.97;4.27;;;;;;;;;;4972985;28;20191;-75
2022/06/13 06:47:30;;;;;;;5.23;3.93;;;;;;;;;;4997411;28;20185;-76
2022/06/13 06:49:55;;;;;;;5.20;3.50;;;;;;;;;;4993214;28;20379;-76
2022/06/13 06:52:21;;;;;;;6.93;4.30;;;;;;;;;;4972778;28;20216;-76
2022/06/13 07:00:14;;;;;;;8.00;3.57;;;;;;;;;;4994630;28;20191;-76
2022/06/13 07:02:39;;;;;;;9.30;4.60;;;;;;;;;;4971863;28;20181;-76
2022/06/13 07:05:06;;;;;;;5.07;4.07;;;;;;;;;;4970936;28;20192;-76
2022/06/13 07:07:32;;;;;;;5.50;4.03;;;;;;;;;;4963042;28;20184;-76
2022/06/13 07:09:57;;;;;;;9.23;4.10;;;;;;;;;;4983381;28;20260;-76
2022/06/13 07:12:22;;;;;;;7.93;3.80;;;;;;;;;;4988538;28;20202;-76
2022/06/13 07:14:47;;;;;;;4.57;3.50;;;;;;;;;;4975784;28;20230;-76
2022/06/13 07:17:13;;;;;;;5.17;3.43;;;;;;;;;;4962865;28;20177;-76
2022/06/13 07:19:39;;;;;;;6.03;4.03;;;;;;;;;;4966657;28;20257;-76
2022/06/13 07:22:05;;;;;;;7.20;3.90;;;;;;;;;;4985719;28;20274;-75
2022/06/13 07:24:33;;;;;;;8.63;3.77;;;;;;;;;;4977747;28;20259;-78
2022/06/13 07:26:59;;;;;;;5.73;3.40;;;;;;;;;;4989840;28;20187;-78
2022/06/13 07:29:25;;;;;;;3.60;3.03;;;;;;;;;;4973051;28;20188;-78
2022/06/13 07:32:00;;;;;;;5.77;3.37;;;;;;;;;;4981202;28;20213;-78
2022/06/13 07:34:27;;;;;;;8.00;3.70;;;;;;;;;;4966583;28;20279;-78
2022/06/13 07:36:53;;;;;;;6.43;3.80;;;;;;;;;;4998421;28;20290;-78
2022/06/13 07:39:19;;;;;;;8.80;4.10;;;;;;;;;;4993343;28;20184;-78
2022/06/13 07:41:44;;;;;;;5.33;2.97;;;;;;;;;;4981238;28;20198;-78
2022/06/13 07:44:15;;;;;;;8.43;3.80;;;;;;;;;;4979695;28;20267;-78
2022/06/13 07:46:40;;;;;;;5.97;3.47;;;;;;;;;;4979125;28;20184;-78
2022/06/13 07:49:06;;;;;;;4.33;3.53;;;;;;;;;;4978007;28;20177;-78
2022/06/13 07:51:31;;;;;;;4.13;3.40;;;;;;;;;;4977614;28;20193;-78
2022/06/13 07:53:56;;;;;;;4.30;3.40;;;;;;;;;;4978172;28;20304;-78
2022/06/13 07:56:23;;;;;;;4.40;3.30;;;;;;;;;;4988744;28;20185;-78
2022/06/13 07:58:50;;;;;;;7.83;3.63;;;;;;;;;;4982609;28;20285;-78
2022/06/13 08:01:16;;;;;;;5.10;3.40;;;;;;;;;;4974629;28;20177;-78
2022/06/13 08:03:42;;;;;;;5.47;3.20;;;;;;;;;;4981992;28;20182;-78
2022/06/13 08:06:07;;;;;;;7.17;3.60;;;;;;;;;;4977775;28;20184;-78
2022/06/13 08:08:35;;;;;;;6.53;4.13;;;;;;;;;;4985654;28;20246;-78
2022/06/13 08:11:04;;;;;;;6.97;3.50;;;;;;;;;;4975481;28;20205;-78
2022/06/13 08:13:30;;;;;;;4.67;3.13;;;;;;;;;;4967723;28;20206;-78
2022/06/13 08:15:56;;;;;;;6.63;3.20;;;;;;;;;;4975570;28;20181;-78
2022/06/13 08:18:21;;;;;;;4.43;3.20;;;;;;;;;;4992278;28;20185;-78
2022/06/13 08:20:47;;;;;;;5.07;3.03;;;;;;;;;;4976703;28;20180;-78
2022/06/13 08:23:13;;;;;;;4.27;3.20;;;;;;;;;;5136229;23;20336;-77
2022/06/13 08:25:40;;;;;;;4.47;3.10;;;;;;;;;;4989151;28;20509;-78
2022/06/13 08:28:06;;;;;;;4.20;3.30;;;;;;;;;;4975277;28;20254;-77
2022/06/13 08:30:58;;;;;;;8.50;3.30;;;;;;;;;;4971382;28;20191;-77
2022/06/13 08:33:23;;;;;;;7.50;3.97;;;;;;;;;;4969089;28;20303;-77
2022/06/13 08:35:49;;;;;;;6.63;3.43;;;;;;;;;;4969678;28;20223;-77
2022/06/13 08:38:14;;;;;;;5.97;3.03;;;;;;;;;;4989032;28;20270;-78
2022/06/13 08:40:48;;;;;;;4.67;3.23;;;;;;;;;;4985546;28;20179;-77
2022/06/13 08:43:35;;;;;;;4.43;3.27;;;;;;;;;;4982215;28;20206;-76
2022/06/13 08:46:11;;;;;;;6.60;3.80;;;;;;;;;;5001481;28;20187;-77
2022/06/13 08:48:39;;;;;;;4.33;3.17;;;;;;;;;;4997624;28;20245;-76
2022/06/13 08:51:08;;;;;;;6.13;3.30;;;;;;;;;;5005678;28;20214;-76
2022/06/13 08:53:47;;;;;;;5.77;3.40;;;;;;;;;;5009929;28;20306;-76
2022/06/13 08:56:14;;;;;;;4.93;3.17;;;;;;;;;;5006875;28;20233;-76
2022/06/13 08:58:57;;;;;;;7.97;3.90;;;;;;;;;;4990072;28;20254;-76
2022/06/13 09:01:27;;;;;;;4.63;3.60;;;;;;;;;;4990289;28;20187;-77
2022/06/13 09:03:55;;;;;;;7.73;3.17;;;;;;;;;;4981352;28;20202;-76
2022/06/13 09:06:36;;;;;;;6.57;3.33;;;;;;;;;;5021144;28;20187;-76
2022/06/13 09:09:01;;;;;;;4.77;2.87;;;;;;;;;;5001351;28;20222;-76
2022/06/13 09:11:50;;;;;;;5.93;3.20;;;;;;;;;;5008279;28;20246;-76
2022/06/13 09:14:19;;;;;;;6.20;3.00;;;;;;;;;;4998046;28;20224;-77
2022/06/13 09:16:49;;;;;;;5.00;2.90;;;;;;;;;;4985858;28;20279;-76
2022/06/13 09:19:19;;;;;;;6.37;3.20;;;;;;;;;;4986500;28;20187;-76
2022/06/13 09:21:49;;;;;;;5.43;3.47;;;;;;;;;;4982068;28;20188;-77
2022/06/13 09:24:32;;;;;;;6.43;3.10;;;;;;;;;;4985317;28;20237;-76
2022/06/13 09:27:04;;;;;;;6.17;3.10;;;;;;;;;;5001505;28;20296;-76
2022/06/13 09:30:01;;;;;;;3.97;2.83;;;;;;;;;;5004555;28;20194;-76
2022/06/13 09:32:38;;;;;;;5.93;2.97;;;;;;;;;;4984324;28;20222;-76
2022/06/13 09:35:18;;;;;;;5.93;2.30;;;;;;;;;;4997800;28;20232;-77
2022/06/13 09:37:48;;;;;;;7.57;3.37;;;;;;;;;;5003103;28;20193;-77
2022/06/13 09:40:14;;;;;;;3.07;2.40;;;;;;;;;;4988574;28;20319;-76
2022/06/13 09:42:51;;;;;;;4.13;2.67;;;;;;;;;;4986501;28;21235;-76
2022/06/13 09:45:17;;;;;;;5.37;2.87;;;;;;;;;;5027621;28;20326;-76
2022/06/13 09:47:46;;;;;;;3.27;2.70;;;;;;;;;;5006724;28;20269;-76
2022/06/13 09:50:30;;;;;;;9.00;3.43;;;;;;;;;;4993448;28;20218;-77
2022/06/13 09:53:07;;;;;;;2.97;2.67;;;;;;;;;;5016679;28;20217;-77
2022/06/13 09:55:35;;;;;;;4.30;2.73;;;;;;;;;;5009560;28;20275;-77
2022/06/13 09:58:23;;;;;;;4.50;3.30;;;;;;;;;;4994355;28;20241;-76
2022/06/13 10:00:53;;;;;;;6.20;2.53;;;;;;;;;;4989369;28;20175;-77
2022/06/13 10:03:18;;;;;;;2.93;2.30;;;;;;;;;;5000987;28;20244;-77
2022/06/13 10:06:04;;;;;;;3.47;2.63;;;;;;;;;;4995357;28;20188;-76
2022/06/13 10:08:42;;;;;;;5.37;2.57;;;;;;;;;;4992032;28;20186;-77
2022/06/13 10:11:08;;;;;;;2.67;2.07;;;;;;;;;;4983945;28;20179;-77
2022/06/13 10:13:36;;;;;;;7.67;2.70;;;;;;;;;;4983126;28;20210;-77
2022/06/13 10:16:13;;;;;;;5.77;2.20;;;;;;;;;;4991421;28;20204;-77
2022/06/13 10:19:01;;;;;;;4.27;2.40;;;;;;;;;;5002416;28;20189;-77
2022/06/13 10:21:32;;;;;;;4.23;3.80;;;;;;;;;;4988629;28;20171;-78
2022/06/13 10:24:16;;;;;;;2.97;2.33;;;;;;;;;;4993975;28;20312;-77
2022/06/13 10:26:56;;;;;;;14.10;2.50;;;;;;;;;;5020813;28;20173;-76
2022/06/13 10:29:31;;;;;;;2.30;2.03;;;;;;;;;;5011287;28;20214;-77
2022/06/13 10:31:59;;;;;;;4.40;2.10;;;;;;;;;;4988998;28;20193;-78
2022/06/13 10:34:31;;;;;;;7.27;3.07;;;;;;;;;;5020588;28;20189;-77
2022/06/13 10:37:19;;;;;;;3.70;2.60;;;;;;;;;;4989758;28;20183;-77
2022/06/13 10:39:45;;;;;;;4.17;2.40;;;;;;;;;;5020497;28;20184;-77
2022/06/13 10:42:13;;;;;;;3.67;2.17;;;;;;;;;;4984873;28;20226;-74
2022/06/13 10:44:39;;;;;;;4.10;2.30;;;;;;;;;;4987234;28;20240;-75
2022/06/13 10:47:25;;;;;;;2.87;2.33;;;;;;;;;;5000424;28;20219;-75
2022/06/13 10:49:59;;;;;;;3.70;2.20;;;;;;;;;;5019189;28;20222;-75
2022/06/13 10:52:26;;;;;;;3.30;1.53;;;;;;;;;;4986308;28;20314;-75
2022/06/13 10:54:54;;;;;;;3.67;2.00;;;;;;;;;;4998181;28;20174;-75
2022/06/13 10:57:46;;;;;;;3.43;1.80;;;;;;;;;;5009929;28;20183;-75
2022/06/13 11:00:20;;;;;;;5.73;2.37;;;;;;;;;;4991143;28;20201;-75
2022/06/13 11:02:46;;;;;;;2.53;1.97;;;;;;;;;;4993865;28;20190;-75
2022/06/13 11:05:16;;;;;;;2.33;1.93;;;;;;;;;;4998603;28;20189;-75
2022/06/13 11:07:44;;;;;;;5.57;2.20;;;;;;;;;;4995650;28;20189;-75
2022/06/13 11:10:18;;;;;;;4.20;3.00;;;;;;;;;;4995275;28;20215;-75
2022/06/13 11:12:48;;;;;;;2.50;2.30;;;;;;;;;;4994416;28;20208;-75
2022/06/13 11:24:04;;;;;;;5.77;2.80;;;;;;;;;;5004553;28;20304;-75
2022/06/13 11:29:21;;;;;;;3.53;2.53;;;;;;;;;;5006616;28;20197;-75
2022/06/13 11:31:49;;;;;;;4.17;2.63;;;;;;;;;;4987218;28;20242;-75
2022/06/13 11:34:20;;;;;;;2.47;2.13;;;;;;;;;;5017509;28;20190;-75
2022/06/13 11:36:55;;;;;;;2.87;2.30;;;;;;;;;;5006404;28;20177;-75
2022/06/13 11:39:30;;;;;;;3.90;2.90;;;;;;;;;;4987217;28;20236;-75
2022/06/13 11:41:56;;;;;;;3.30;1.97;;;;;;;;;;4995107;28;20197;-77
2022/06/13 11:44:21;;;;;;;2.97;2.30;;;;;;;;;;4987424;28;20183;-77
2022/06/13 11:46:53;;;;;;;4.03;2.70;;;;;;;;;;4988929;28;20184;-77
2022/06/13 11:49:39;;;;;;;4.67;2.33;;;;;;;;;;5005429;28;20194;-77
2022/06/13 11:52:10;;;;;;;4.63;2.10;;;;;;;;;;4990141;28;20182;-77
2022/06/13 11:54:40;;;;;;;3.20;2.53;;;;;;;;;;5024137;28;20180;-77
2022/06/13 11:57:18;;;;;;;3.30;2.30;;;;;;;;;;4991637;28;20189;-77
2022/06/13 11:59:49;;;;;;;3.10;2.20;;;;;;;;;;5002437;28;20175;-77
2022/06/13 12:02:19;;;;;;;4.73;2.17;;;;;;;;;;5007040;28;20208;-76
2022/06/13 12:04:46;;;;;;;4.80;2.43;;;;;;;;;;4986091;28;20183;-77
2022/06/13 12:07:19;;;;;;;4.83;2.40;;;;;;;;;;4990096;28;20189;-77
2022/06/13 12:09:50;;;;;;;6.13;2.20;;;;;;;;;;4986811;28;20182;-76
2022/06/13 12:12:16;;;;;;;3.07;1.83;;;;;;;;;;5005341;28;20210;-76
2022/06/13 12:14:41;;;;;;;4.33;2.20;;;;;;;;;;4985225;28;20172;-77
2022/06/13 12:17:10;;;;;;;5.53;2.30;;;;;;;;;;4987930;28;20187;-77
2022/06/13 12:19:46;;;;;;;2.53;2.20;;;;;;;;;;4992577;28;20273;-77
2022/06/13 12:22:15;;;;;;;3.13;2.00;;;;;;;;;;5023005;28;20189;-77
2022/06/13 12:24:49;;;;;;;2.33;1.93;;;;;;;;;;5009834;28;20237;-77
2022/06/13 12:27:21;;;;;;;4.50;2.20;;;;;;;;;;4993183;28;20180;-77
2022/06/13 12:30:12;;;;;;;5.10;2.30;;;;;;;;;;4991448;28;20190;-77
2022/06/13 12:32:47;;;;;;;4.00;2.23;;;;;;;;;;5022685;28;20218;-77
2022/06/13 12:35:15;;;;;;;2.13;1.93;;;;;;;;;;5004463;28;20189;-77
2022/06/13 12:37:43;;;;;;;3.28;2.30;;;;;;;;;;4984146;28;20182;-77
2022/06/13 12:40:14;;;;;;;3.23;2.00;;;;;;;;;;4999503;28;20260;-77
2022/06/13 12:43:01;;;;;;;6.10;2.73;;;;;;;;;;4990243;28;20210;-77
2022/06/13 12:45:38;;;;;;;4.10;2.10;;;;;;;;;;4964650;28;20206;-77
2022/06/13 12:48:10;;;;;;;5.65;2.20;;;;;;;;;;4996480;28;20268;-77
2022/06/13 12:50:47;;;;;;;2.57;2.10;;;;;;;;;;5000333;28;20214;-77
2022/06/13 12:53:32;;;;;;;3.20;2.10;;;;;;;;;;5012266;28;20221;-77
2022/06/13 12:56:03;;;;;;;3.17;2.40;;;;;;;;;;5021579;28;20176;-77
2022/06/13 12:58:44;;;;;;;2.53;1.70;;;;;;;;;;4980473;28;20182;-76
2022/06/13 13:01:16;;;;;;;3.70;1.90;;;;;;;;;;5029533;28;20222;-76
2022/06/13 13:03:50;;;;;;;2.77;2.00;;;;;;;;;;4988538;28;20289;-76
2022/06/13 13:06:37;;;;;;;2.90;1.90;;;;;;;;;;4999130;28;20186;-76
2022/06/13 13:09:02;;;;;;;2.63;2.00;;;;;;;;;;5009224;28;20249;-76
2022/06/13 13:11:46;;;;;;;8.63;2.17;;;;;;;;;;5000321;28;20192;-76
2022/06/13 13:14:27;;;;;;;2.87;1.97;;;;;;;;;;5012503;28;20251;-76
2022/06/13 13:16:55;;;;;;;2.60;1.70;;;;;;;;;;5016858;28;20180;-76
2022/06/13 13:19:59;;;;;;;2.10;1.90;;;;;;;;;;4993487;28;20186;-76
2022/06/13 13:22:28;;;;;;;4.07;2.17;;;;;;;;;;4970905;28;20196;-76
2022/06/13 13:25:25;;;;;;;2.20;1.80;;;;;;;;;;4972051;28;20202;-77
2022/06/13 13:28:00;;;;;;;4.93;2.57;;;;;;;;;;4972136;28;20202;-76
2022/06/13 13:30:36;;;;;;;4.43;2.53;;;;;;;;;;5005205;28;20213;-76
2022/06/13 13:33:20;;;;;;;2.37;2.10;;;;;;;;;;5010524;28;20205;-75
2022/06/13 13:36:06;;;;;;;4.05;2.80;;;;;;;;;;5012937;28;20210;-76
2022/06/13 13:38:34;;;;;;;3.88;1.52;;;;;;;;;;5004078;28;20205;-76
2022/06/13 13:41:02;;;;;;;2.05;1.73;;;;;;;;;;5001261;28;20196;-75
2022/06/13 13:43:35;;;;;;;3.33;2.38;;;;;;;;;;5009924;28;20179;-76
2022/06/13 13:46:08;;;;;;;3.80;1.92;;;;;;;;;;5013503;28;20184;-76
2022/06/13 13:48:52;;;;;;;2.35;1.80;;;;;;;;;;5002277;28;20187;-76
2022/06/13 13:51:30;;;;;;;4.45;2.00;;;;;;;;;;5016294;28;20203;-76
2022/06/13 13:54:01;;;;;;;2.05;1.80;;;;;;;;;;5004485;28;20218;-76
2022/06/13 13:56:34;;;;;;;2.95;1.70;;;;;;;;;;5016315;28;20247;-76
2022/06/13 13:59:00;;;;;;;4.07;2.13;;;;;;;;;;5013790;28;20179;-76
2022/06/13 14:01:33;;;;;;;1.88;1.50;;;;;;;;;;5001862;28;20184;-76
2022/06/13 14:03:58;;;;;;;1.75;1.65;;;;;;;;;;5003445;28;20183;-77
2022/06/13 14:06:28;;;;;;;2.75;2.00;;;;;;;;;;5018466;28;20187;-75
2022/06/13 14:08:54;;;;;;;1.80;1.70;;;;;;;;;;5011430;28;20247;-76
2022/06/13 14:11:20;;;;;;;5.22;2.00;;;;;;;;;;5039600;28;20275;-76
2022/06/13 14:13:46;;;;;;;2.15;1.17;;;;;;;;;;5005799;28;20294;-76
2022/06/13 14:16:23;;;;;;;2.03;1.80;;;;;;;;;;5004837;28;20455;-76
2022/06/13 14:18:51;;;;;;;3.30;1.98;;;;;;;;;;5015595;28;20241;-76
2022/06/13 14:21:16;;;;;;;2.05;1.70;;;;;;;;;;4999420;28;20211;-76
2022/06/13 14:23:46;;;;;;;2.72;1.88;;;;;;;;;;5004350;28;20248;-76
2022/06/13 14:26:28;;;;;;;2.35;1.60;;;;;;;;;;5010866;28;20179;-76
2022/06/13 14:28:55;;;;;;;3.17;2.00;;;;;;;;;;5014480;28;20192;-76
2022/06/13 14:31:20;;;;;;;2.88;1.85;;;;;;;;;;5005308;28;20187;-76
2022/06/13 14:36:55;;;;;;;1.90;1.60;;;;;;;;;;5002825;28;20498;-76
2022/06/13 14:39:21;;;;;;;2.78;2.22;;;;;;;;;;5038093;28;20178;-76
2022/06/13 14:41:46;;;;;;;1.90;1.70;;;;;;;;;;5008764;28;20195;-76
2022/06/13 14:44:11;;;;;;;2.33;1.98;;;;;;;;;;5006795;28;20184;-76
2022/06/13 14:46:43;;;;;;;2.75;2.10;;;;;;;;;;5021712;28;20237;-76
2022/06/13 14:49:11;;;;;;;3.13;2.33;;;;;;;;;;5023104;28;20180;-76
2022/06/13 14:52:16;;;;;;;3.88;1.58;;;;;;;;;;5002979;28;20198;-76
2022/06/13 14:54:44;;;;;;;3.15;1.77;;;;;;;;;;4932983;29;20182;-76
2022/06/13 14:57:27;;;;;;;4.85;1.80;;;;;;;;;;4944978;28;20186;-75
2022/06/13 15:00:07;;;;;;;2.33;1.75;;;;;;;;;;4934269;29;20191;-76
2022/06/13 15:02:51;;;;;;;3.67;2.00;;;;;;;;;;4945512;29;20317;-76
2022/06/13 15:05:16;;;;;;;3.40;1.83;;;;;;;;;;4946566;28;20224;-76
2022/06/13 15:07:44;;;;;;;2.53;1.90;;;;;;;;;;4932088;29;20186;-76
2022/06/13 15:10:16;;;;;;;5.03;1.52;;;;;;;;;;4943280;28;20190;-75
2022/06/13 15:12:44;;;;;;;3.70;2.22;;;;;;;;;;4929911;29;20282;-76
2022/06/13 15:15:16;;;;;;;2.72;1.98;;;;;;;;;;4906091;29;20186;-76
2022/06/13 15:17:42;;;;;;;3.05;2.10;;;;;;;;;;4930644;29;20185;-75
2022/06/13 15:20:12;;;;;;;3.67;1.80;;;;;;;;;;4909889;29;20190;-76
2022/06/13 15:22:40;;;;;;;1.70;1.60;;;;;;;;;;4926120;29;20182;-76
2022/06/13 15:25:06;;;;;;;4.07;2.03;;;;;;;;;;4957611;28;20226;-76
2022/06/13 15:27:31;;;;;;;2.45;1.90;;;;;;;;;;5002851;28;20207;-76